sensor_id;sensor_type;location;lat;lon;timestamp;P1;durP1;ratioP1;P2;durP2;ratioP2
43014;SDS011;28637;50.554;7.032;2023-03-23T00:02:43;1.95;;;1.45;;
43014;SDS011;28637;50.554;7.032;2023-03-23T00:07:43;2.30;;;1.60;;
43014;SDS011;28637;50.554;7.032;2023-03-23T00:12:45;2.28;;;1.50;;
43014;SDS011;28637;50.554;7.032;2023-03-23T00:17:49;3.13;;;1.50;;
43014;SDS011;28637;50.554;7.032;2023-03-23T00:22:51;2.50;;;1.40;;
43014;SDS011;28637;50.554;7.032;2023-03-23T00:27:51;3.10;;;1.73;;
43014;SDS011;28637;50.554;7.032;2023-03-23T00:32:52;1.93;;;1.50;;
43014;SDS011;28637;50.554;7.032;2023-03-23T00:37:52;2.10;;;1.37;;
43014;SDS011;28637;50.554;7.032;2023-03-23T00:42:55;2.20;;;1.52;;
43014;SDS011;28637;50.554;7.032;2023-03-23T00:47:56;2.77;;;1.40;;
43014;SDS011;28637;50.554;7.032;2023-03-23T00:53:01;2.25;;;1.40;;
43014;SDS011;28637;50.554;7.032;2023-03-23T00:58:02;2.27;;;1.40;;
43014;SDS011;28637;50.554;7.032;2023-03-23T01:03:03;3.17;;;1.63;;
43014;SDS011;28637;50.554;7.032;2023-03-23T01:08:05;2.60;;;1.55;;
43014;SDS011;28637;50.554;7.032;2023-03-23T01:13:07;2.05;;;1.40;;
43014;SDS011;28637;50.554;7.032;2023-03-23T01:18:08;3.72;;;1.45;;
43014;SDS011;28637;50.554;7.032;2023-03-23T01:23:09;1.65;;;1.17;;
43014;SDS011;28637;50.554;7.032;2023-03-23T01:28:10;2.63;;;1.40;;
43014;SDS011;28637;50.554;7.032;2023-03-23T01:33:11;2.17;;;1.30;;
43014;SDS011;28637;50.554;7.032;2023-03-23T01:38:12;2.30;;;1.50;;
43014;SDS011;28637;50.554;7.032;2023-03-23T01:43:13;1.70;;;1.37;;
43014;SDS011;28637;50.554;7.032;2023-03-23T01:53:18;1.33;;;1.10;;
43014;SDS011;28637;50.554;7.032;2023-03-23T02:03:26;2.28;;;1.65;;
43014;SDS011;28637;50.554;7.032;2023-03-23T02:08:29;2.38;;;1.60;;
43014;SDS011;28637;50.554;7.032;2023-03-23T02:13:32;2.35;;;1.60;;
43014;SDS011;28637;50.554;7.032;2023-03-23T02:29:38;2.45;;;1.73;;
43014;SDS011;28637;50.554;7.032;2023-03-23T02:40:12;2.25;;;1.70;;
43014;SDS011;28637;50.554;7.032;2023-03-23T02:45:16;2.50;;;1.80;;
43014;SDS011;28637;50.554;7.032;2023-03-23T02:50:20;2.42;;;1.70;;
43014;SDS011;28637;50.554;7.032;2023-03-23T02:55:23;2.75;;;1.70;;
43014;SDS011;28637;50.554;7.032;2023-03-23T03:00:26;2.20;;;1.50;;
43014;SDS011;28637;50.554;7.032;2023-03-23T03:05:40;2.30;;;1.57;;
43014;SDS011;28637;50.554;7.032;2023-03-23T03:21:28;3.28;;;1.80;;
43014;SDS011;28637;50.554;7.032;2023-03-23T03:26:33;1.75;;;1.50;;
43014;SDS011;28637;50.554;7.032;2023-03-23T03:31:36;2.13;;;1.70;;
43014;SDS011;28637;50.554;7.032;2023-03-23T03:36:39;3.08;;;2.05;;
43014;SDS011;28637;50.554;7.032;2023-03-23T03:41:41;2.40;;;1.70;;
43014;SDS011;28637;50.554;7.032;2023-03-23T03:46:42;2.27;;;1.73;;
43014;SDS011;28637;50.554;7.032;2023-03-23T03:51:43;2.10;;;1.90;;
43014;SDS011;28637;50.554;7.032;2023-03-23T03:56:44;2.25;;;1.58;;
43014;SDS011;28637;50.554;7.032;2023-03-23T04:01:45;3.55;;;1.67;;
43014;SDS011;28637;50.554;7.032;2023-03-23T04:06:46;2.13;;;1.73;;
43014;SDS011;28637;50.554;7.032;2023-03-23T04:11:48;2.72;;;1.83;;
43014;SDS011;28637;50.554;7.032;2023-03-23T04:16:49;4.20;;;1.90;;
43014;SDS011;28637;50.554;7.032;2023-03-23T04:21:51;2.55;;;1.70;;
43014;SDS011;28637;50.554;7.032;2023-03-23T04:26:52;2.97;;;2.00;;
43014;SDS011;28637;50.554;7.032;2023-03-23T04:36:55;1.97;;;1.60;;
43014;SDS011;28637;50.554;7.032;2023-03-23T04:41:56;1.50;;;1.40;;
43014;SDS011;28637;50.554;7.032;2023-03-23T04:47:01;2.85;;;1.70;;
43014;SDS011;28637;50.554;7.032;2023-03-23T04:52:02;2.87;;;1.57;;
43014;SDS011;28637;50.554;7.032;2023-03-23T04:57:02;5.23;;;1.90;;
43014;SDS011;28637;50.554;7.032;2023-03-23T05:02:03;1.60;;;1.50;;
43014;SDS011;28637;50.554;7.032;2023-03-23T05:07:04;1.63;;;1.40;;
43014;SDS011;28637;50.554;7.032;2023-03-23T05:12:08;2.13;;;1.67;;
43014;SDS011;28637;50.554;7.032;2023-03-23T05:17:09;3.13;;;1.58;;
43014;SDS011;28637;50.554;7.032;2023-03-23T05:22:11;3.43;;;1.80;;
43014;SDS011;28637;50.554;7.032;2023-03-23T05:27:12;2.53;;;1.65;;
43014;SDS011;28637;50.554;7.032;2023-03-23T05:32:15;2.20;;;1.70;;
43014;SDS011;28637;50.554;7.032;2023-03-23T05:37:17;3.25;;;1.70;;
43014;SDS011;28637;50.554;7.032;2023-03-23T05:42:17;1.70;;;1.40;;
43014;SDS011;28637;50.554;7.032;2023-03-23T05:47:18;1.90;;;1.53;;
43014;SDS011;28637;50.554;7.032;2023-03-23T05:52:19;2.80;;;1.40;;
43014;SDS011;28637;50.554;7.032;2023-03-23T05:57:20;2.72;;;1.60;;
43014;SDS011;28637;50.554;7.032;2023-03-23T06:02:24;2.22;;;1.40;;
43014;SDS011;28637;50.554;7.032;2023-03-23T06:07:28;2.10;;;1.50;;
43014;SDS011;28637;50.554;7.032;2023-03-23T06:12:29;2.70;;;1.50;;
43014;SDS011;28637;50.554;7.032;2023-03-23T06:22:32;3.38;;;1.52;;
43014;SDS011;28637;50.554;7.032;2023-03-23T06:27:33;4.07;;;1.70;;
43014;SDS011;28637;50.554;7.032;2023-03-23T06:32:35;4.18;;;1.60;;
43014;SDS011;28637;50.554;7.032;2023-03-23T06:37:36;2.00;;;1.40;;
43014;SDS011;28637;50.554;7.032;2023-03-23T06:42:37;3.80;;;1.40;;
43014;SDS011;28637;50.554;7.032;2023-03-23T06:47:38;2.23;;;1.50;;
43014;SDS011;28637;50.554;7.032;2023-03-23T06:52:38;2.43;;;1.43;;
43014;SDS011;28637;50.554;7.032;2023-03-23T06:57:39;3.60;;;1.70;;
43014;SDS011;28637;50.554;7.032;2023-03-23T07:02:40;2.93;;;1.57;;
43014;SDS011;28637;50.554;7.032;2023-03-23T07:07:41;2.97;;;1.30;;
43014;SDS011;28637;50.554;7.032;2023-03-23T07:12:42;2.40;;;1.37;;
43014;SDS011;28637;50.554;7.032;2023-03-23T07:17:43;3.47;;;1.40;;
43014;SDS011;28637;50.554;7.032;2023-03-23T07:22:43;1.70;;;1.20;;
43014;SDS011;28637;50.554;7.032;2023-03-23T07:27:44;2.13;;;1.20;;
43014;SDS011;28637;50.554;7.032;2023-03-23T07:32:45;2.80;;;1.20;;
43014;SDS011;28637;50.554;7.032;2023-03-23T07:37:46;4.03;;;1.30;;
43014;SDS011;28637;50.554;7.032;2023-03-23T07:42:53;2.25;;;1.30;;
43014;SDS011;28637;50.554;7.032;2023-03-23T07:47:55;2.88;;;1.23;;
43014;SDS011;28637;50.554;7.032;2023-03-23T07:52:56;1.63;;;1.10;;
43014;SDS011;28637;50.554;7.032;2023-03-23T07:57:57;2.58;;;1.50;;
43014;SDS011;28637;50.554;7.032;2023-03-23T08:02:58;2.00;;;1.10;;
43014;SDS011;28637;50.554;7.032;2023-03-23T08:07:59;2.10;;;1.17;;
43014;SDS011;28637;50.554;7.032;2023-03-23T08:13:00;1.93;;;1.20;;
43014;SDS011;28637;50.554;7.032;2023-03-23T08:18:01;3.65;;;1.40;;
43014;SDS011;28637;50.554;7.032;2023-03-23T08:23:02;6.53;;;1.37;;
43014;SDS011;28637;50.554;7.032;2023-03-23T08:28:04;4.03;;;1.30;;
43014;SDS011;28637;50.554;7.032;2023-03-23T08:33:04;1.50;;;1.37;;
43014;SDS011;28637;50.554;7.032;2023-03-23T08:38:05;2.03;;;1.10;;
43014;SDS011;28637;50.554;7.032;2023-03-23T08:43:06;1.40;;;1.00;;
43014;SDS011;28637;50.554;7.032;2023-03-23T08:48:07;2.00;;;1.20;;
43014;SDS011;28637;50.554;7.032;2023-03-23T08:53:09;4.35;;;1.40;;
43014;SDS011;28637;50.554;7.032;2023-03-23T08:58:10;2.70;;;1.17;;
43014;SDS011;28637;50.554;7.032;2023-03-23T09:03:10;2.03;;;0.90;;
43014;SDS011;28637;50.554;7.032;2023-03-23T09:08:11;2.77;;;1.27;;
43014;SDS011;28637;50.554;7.032;2023-03-23T09:13:13;1.85;;;1.13;;
43014;SDS011;28637;50.554;7.032;2023-03-23T09:18:13;1.60;;;1.00;;
43014;SDS011;28637;50.554;7.032;2023-03-23T09:23:14;1.73;;;1.07;;
43014;SDS011;28637;50.554;7.032;2023-03-23T09:28:15;1.53;;;1.03;;
43014;SDS011;28637;50.554;7.032;2023-03-23T09:33:16;1.63;;;0.90;;
43014;SDS011;28637;50.554;7.032;2023-03-23T09:38:16;2.63;;;0.83;;
43014;SDS011;28637;50.554;7.032;2023-03-23T09:43:20;1.20;;;0.80;;
43014;SDS011;28637;50.554;7.032;2023-03-23T09:53:50;1.45;;;0.70;;
43014;SDS011;28637;50.554;7.032;2023-03-23T09:59:37;1.92;;;0.80;;
43014;SDS011;28637;50.554;7.032;2023-03-23T10:04:32;0.82;;;0.80;;
43014;SDS011;28637;50.554;7.032;2023-03-23T10:09:38;2.20;;;0.73;;
43014;SDS011;28637;50.554;7.032;2023-03-23T10:19:53;1.80;;;0.80;;
43014;SDS011;28637;50.554;7.032;2023-03-23T10:25:16;1.75;;;0.70;;
43014;SDS011;28637;50.554;7.032;2023-03-23T10:30:29;1.00;;;0.70;;
43014;SDS011;28637;50.554;7.032;2023-03-23T10:35:59;1.52;;;0.80;;
43014;SDS011;28637;50.554;7.032;2023-03-23T10:41:04;0.63;;;0.60;;
43014;SDS011;28637;50.554;7.032;2023-03-23T10:51:37;3.30;;;0.80;;
43014;SDS011;28637;50.554;7.032;2023-03-23T10:56:42;0.80;;;0.80;;
43014;SDS011;28637;50.554;7.032;2023-03-23T11:01:48;2.20;;;0.80;;
43014;SDS011;28637;50.554;7.032;2023-03-23T11:06:52;0.73;;;0.73;;
43014;SDS011;28637;50.554;7.032;2023-03-23T11:11:54;1.00;;;0.70;;
43014;SDS011;28637;50.554;7.032;2023-03-23T11:16:56;1.67;;;0.65;;
43014;SDS011;28637;50.554;7.032;2023-03-23T11:22:06;2.70;;;0.95;;
43014;SDS011;28637;50.554;7.032;2023-03-23T11:27:09;1.75;;;0.90;;
43014;SDS011;28637;50.554;7.032;2023-03-23T11:32:11;3.28;;;0.95;;
43014;SDS011;28637;50.554;7.032;2023-03-23T11:37:19;3.75;;;1.10;;
43014;SDS011;28637;50.554;7.032;2023-03-23T11:42:35;2.72;;;0.80;;
43014;SDS011;28637;50.554;7.032;2023-03-23T11:47:41;3.78;;;0.80;;
43014;SDS011;28637;50.554;7.032;2023-03-23T11:57:52;1.83;;;0.70;;
43014;SDS011;28637;50.554;7.032;2023-03-23T12:02:59;2.20;;;1.00;;
43014;SDS011;28637;50.554;7.032;2023-03-23T12:08:13;4.18;;;1.02;;
43014;SDS011;28637;50.554;7.032;2023-03-23T12:18:51;1.85;;;1.00;;
43014;SDS011;28637;50.554;7.032;2023-03-23T12:24:14;2.53;;;1.00;;
43014;SDS011;28637;50.554;7.032;2023-03-23T12:40:21;1.98;;;0.90;;
43014;SDS011;28637;50.554;7.032;2023-03-23T13:01:25;2.63;;;1.10;;
43014;SDS011;28637;50.554;7.032;2023-03-23T13:06:44;1.65;;;1.10;;
43014;SDS011;28637;50.554;7.032;2023-03-23T13:11:46;4.13;;;1.38;;
43014;SDS011;28637;50.554;7.032;2023-03-23T13:27:07;3.38;;;1.38;;
43014;SDS011;28637;50.554;7.032;2023-03-23T13:32:15;2.80;;;1.20;;
43014;SDS011;28637;50.554;7.032;2023-03-23T13:42:19;5.40;;;1.40;;
43014;SDS011;28637;50.554;7.032;2023-03-23T13:52:46;2.70;;;1.00;;
43014;SDS011;28637;50.554;7.032;2023-03-23T14:02:51;4.03;;;1.27;;
43014;SDS011;28637;50.554;7.032;2023-03-23T14:13:06;3.42;;;1.30;;
43014;SDS011;28637;50.554;7.032;2023-03-23T14:18:15;3.20;;;1.10;;
43014;SDS011;28637;50.554;7.032;2023-03-23T14:23:17;4.25;;;1.30;;
43014;SDS011;28637;50.554;7.032;2023-03-23T14:28:19;4.78;;;1.10;;
43014;SDS011;28637;50.554;7.032;2023-03-23T14:33:22;4.03;;;1.10;;
43014;SDS011;28637;50.554;7.032;2023-03-23T14:38:25;2.85;;;1.10;;
43014;SDS011;28637;50.554;7.032;2023-03-23T14:43:32;2.95;;;1.30;;
43014;SDS011;28637;50.554;7.032;2023-03-23T14:48:37;3.35;;;1.20;;
43014;SDS011;28637;50.554;7.032;2023-03-23T14:53:39;2.42;;;1.00;;
43014;SDS011;28637;50.554;7.032;2023-03-23T14:58:46;2.65;;;1.20;;
43014;SDS011;28637;50.554;7.032;2023-03-23T15:04:31;2.13;;;1.23;;
43014;SDS011;28637;50.554;7.032;2023-03-23T15:09:14;2.92;;;1.27;;
43014;SDS011;28637;50.554;7.032;2023-03-23T15:14:22;4.63;;;1.45;;
43014;SDS011;28637;50.554;7.032;2023-03-23T15:19:46;3.20;;;1.40;;
43014;SDS011;28637;50.554;7.032;2023-03-23T15:24:47;4.23;;;1.40;;
43014;SDS011;28637;50.554;7.032;2023-03-23T15:29:56;2.35;;;1.40;;
43014;SDS011;28637;50.554;7.032;2023-03-23T15:34:57;2.70;;;1.20;;
43014;SDS011;28637;50.554;7.032;2023-03-23T15:40:05;2.72;;;1.25;;
43014;SDS011;28637;50.554;7.032;2023-03-23T15:55:22;3.85;;;1.17;;
43014;SDS011;28637;50.554;7.032;2023-03-23T16:00:25;4.60;;;1.20;;
43014;SDS011;28637;50.554;7.032;2023-03-23T16:05:27;4.72;;;1.50;;
43014;SDS011;28637;50.554;7.032;2023-03-23T16:10:30;2.37;;;1.50;;
43014;SDS011;28637;50.554;7.032;2023-03-23T16:15:31;4.88;;;1.30;;
43014;SDS011;28637;50.554;7.032;2023-03-23T16:20:32;3.63;;;1.37;;
43014;SDS011;28637;50.554;7.032;2023-03-23T16:25:33;4.23;;;1.50;;
43014;SDS011;28637;50.554;7.032;2023-03-23T16:30:34;4.00;;;1.30;;
43014;SDS011;28637;50.554;7.032;2023-03-23T16:35:35;3.33;;;1.33;;
43014;SDS011;28637;50.554;7.032;2023-03-23T16:40:36;4.22;;;1.40;;
43014;SDS011;28637;50.554;7.032;2023-03-23T16:45:40;3.05;;;1.38;;
43014;SDS011;28637;50.554;7.032;2023-03-23T16:50:43;3.78;;;1.13;;
43014;SDS011;28637;50.554;7.032;2023-03-23T16:55:44;4.47;;;1.40;;
43014;SDS011;28637;50.554;7.032;2023-03-23T17:00:47;4.78;;;1.40;;
43014;SDS011;28637;50.554;7.032;2023-03-23T17:05:50;3.47;;;1.52;;
43014;SDS011;28637;50.554;7.032;2023-03-23T17:10:51;5.65;;;1.60;;
43014;SDS011;28637;50.554;7.032;2023-03-23T17:15:52;4.30;;;1.67;;
43014;SDS011;28637;50.554;7.032;2023-03-23T17:20:55;5.15;;;1.60;;
43014;SDS011;28637;50.554;7.032;2023-03-23T17:26:00;5.30;;;1.65;;
43014;SDS011;28637;50.554;7.032;2023-03-23T17:31:01;3.73;;;1.47;;
43014;SDS011;28637;50.554;7.032;2023-03-23T17:36:02;4.15;;;1.50;;
43014;SDS011;28637;50.554;7.032;2023-03-23T17:41:03;3.20;;;1.43;;
43014;SDS011;28637;50.554;7.032;2023-03-23T17:46:07;4.93;;;1.95;;
43014;SDS011;28637;50.554;7.032;2023-03-23T17:51:09;6.95;;;1.50;;
43014;SDS011;28637;50.554;7.032;2023-03-23T17:56:10;3.70;;;1.40;;
43014;SDS011;28637;50.554;7.032;2023-03-23T18:01:11;3.17;;;1.60;;
43014;SDS011;28637;50.554;7.032;2023-03-23T18:06:12;4.87;;;2.00;;
43014;SDS011;28637;50.554;7.032;2023-03-23T18:11:12;4.17;;;1.57;;
43014;SDS011;28637;50.554;7.032;2023-03-23T18:16:13;5.57;;;1.63;;
43014;SDS011;28637;50.554;7.032;2023-03-23T18:21:14;3.53;;;1.50;;
43014;SDS011;28637;50.554;7.032;2023-03-23T18:26:15;3.53;;;1.50;;
43014;SDS011;28637;50.554;7.032;2023-03-23T18:31:16;2.27;;;1.57;;
43014;SDS011;28637;50.554;7.032;2023-03-23T18:36:19;2.63;;;1.50;;
43014;SDS011;28637;50.554;7.032;2023-03-23T18:41:22;4.72;;;1.55;;
43014;SDS011;28637;50.554;7.032;2023-03-23T18:51:24;3.53;;;1.75;;
43014;SDS011;28637;50.554;7.032;2023-03-23T18:56:25;4.23;;;2.00;;
43014;SDS011;28637;50.554;7.032;2023-03-23T19:01:25;3.97;;;1.60;;
43014;SDS011;28637;50.554;7.032;2023-03-23T19:06:26;3.70;;;1.40;;
43014;SDS011;28637;50.554;7.032;2023-03-23T19:11:28;4.80;;;1.58;;
43014;SDS011;28637;50.554;7.032;2023-03-23T19:16:30;3.30;;;1.50;;
43014;SDS011;28637;50.554;7.032;2023-03-23T19:21:34;4.57;;;1.60;;
43014;SDS011;28637;50.554;7.032;2023-03-23T19:26:36;4.78;;;1.70;;
43014;SDS011;28637;50.554;7.032;2023-03-23T19:31:39;3.15;;;1.50;;
43014;SDS011;28637;50.554;7.032;2023-03-23T19:36:40;5.47;;;1.70;;
43014;SDS011;28637;50.554;7.032;2023-03-23T19:41:41;4.50;;;1.63;;
43014;SDS011;28637;50.554;7.032;2023-03-23T19:46:43;4.63;;;1.38;;
43014;SDS011;28637;50.554;7.032;2023-03-23T19:51:44;4.93;;;1.50;;
43014;SDS011;28637;50.554;7.032;2023-03-23T19:56:45;3.63;;;1.40;;
43014;SDS011;28637;50.554;7.032;2023-03-23T20:01:45;4.00;;;1.30;;
43014;SDS011;28637;50.554;7.032;2023-03-23T20:06:46;3.27;;;1.53;;
43014;SDS011;28637;50.554;7.032;2023-03-23T20:11:47;1.60;;;1.40;;
43014;SDS011;28637;50.554;7.032;2023-03-23T20:16:48;2.93;;;1.27;;
43014;SDS011;28637;50.554;7.032;2023-03-23T20:21:48;2.93;;;1.40;;
43014;SDS011;28637;50.554;7.032;2023-03-23T20:26:49;3.17;;;1.40;;
43014;SDS011;28637;50.554;7.032;2023-03-23T20:31:50;3.83;;;1.43;;
43014;SDS011;28637;50.554;7.032;2023-03-23T20:36:51;3.03;;;1.20;;
43014;SDS011;28637;50.554;7.032;2023-03-23T20:41:53;3.63;;;1.50;;
43014;SDS011;28637;50.554;7.032;2023-03-23T20:46:56;3.35;;;1.60;;
43014;SDS011;28637;50.554;7.032;2023-03-23T20:51:57;3.70;;;1.40;;
43014;SDS011;28637;50.554;7.032;2023-03-23T20:56:58;2.87;;;1.40;;
43014;SDS011;28637;50.554;7.032;2023-03-23T21:02:00;2.83;;;1.40;;
43014;SDS011;28637;50.554;7.032;2023-03-23T21:07:01;3.87;;;1.67;;
43014;SDS011;28637;50.554;7.032;2023-03-23T21:12:01;2.53;;;1.40;;
43014;SDS011;28637;50.554;7.032;2023-03-23T21:17:05;2.28;;;1.60;;
43014;SDS011;28637;50.554;7.032;2023-03-23T21:22:06;2.63;;;1.30;;
43014;SDS011;28637;50.554;7.032;2023-03-23T21:27:08;2.80;;;1.30;;
43014;SDS011;28637;50.554;7.032;2023-03-23T21:32:09;3.17;;;1.50;;
43014;SDS011;28637;50.554;7.032;2023-03-23T21:37:10;3.60;;;1.60;;
43014;SDS011;28637;50.554;7.032;2023-03-23T21:42:11;3.33;;;1.47;;
43014;SDS011;28637;50.554;7.032;2023-03-23T21:47:14;3.90;;;1.33;;
43014;SDS011;28637;50.554;7.032;2023-03-23T21:52:17;3.30;;;1.60;;
43014;SDS011;28637;50.554;7.032;2023-03-23T21:57:18;2.37;;;1.60;;
43014;SDS011;28637;50.554;7.032;2023-03-23T22:02:19;2.88;;;1.58;;
43014;SDS011;28637;50.554;7.032;2023-03-23T22:07:20;2.60;;;1.50;;
43014;SDS011;28637;50.554;7.032;2023-03-23T22:12:22;2.90;;;1.70;;
43014;SDS011;28637;50.554;7.032;2023-03-23T22:17:23;2.07;;;1.47;;
43014;SDS011;28637;50.554;7.032;2023-03-23T22:22:24;2.50;;;1.47;;
43014;SDS011;28637;50.554;7.032;2023-03-23T22:27:25;3.03;;;1.40;;
43014;SDS011;28637;50.554;7.032;2023-03-23T22:32:25;4.60;;;1.90;;
43014;SDS011;28637;50.554;7.032;2023-03-23T22:37:26;5.37;;;1.60;;
43014;SDS011;28637;50.554;7.032;2023-03-23T22:42:27;2.57;;;1.33;;
43014;SDS011;28637;50.554;7.032;2023-03-23T22:47:28;3.47;;;1.33;;
43014;SDS011;28637;50.554;7.032;2023-03-23T22:52:28;3.70;;;1.53;;
43014;SDS011;28637;50.554;7.032;2023-03-23T22:57:30;2.13;;;1.42;;
43014;SDS011;28637;50.554;7.032;2023-03-23T23:02:30;2.73;;;1.30;;
43014;SDS011;28637;50.554;7.032;2023-03-23T23:07:31;2.50;;;1.70;;
43014;SDS011;28637;50.554;7.032;2023-03-23T23:12:32;3.60;;;1.40;;
43014;SDS011;28637;50.554;7.032;2023-03-23T23:22:38;1.98;;;1.58;;
43014;SDS011;28637;50.554;7.032;2023-03-23T23:27:39;2.90;;;1.70;;
43014;SDS011;28637;50.554;7.032;2023-03-23T23:32:40;1.80;;;1.57;;
43014;SDS011;28637;50.554;7.032;2023-03-23T23:37:43;1.80;;;1.50;;
43014;SDS011;28637;50.554;7.032;2023-03-23T23:42:46;1.80;;;1.33;;
43014;SDS011;28637;50.554;7.032;2023-03-23T23:47:48;2.95;;;1.70;;
43014;SDS011;28637;50.554;7.032;2023-03-23T23:52:49;2.37;;;1.70;;
